createdAt,value
2023-05-02T00:01:07.088Z,92.6537
2023-05-02T00:02:07.750Z,92.3840
2023-05-02T00:03:07.878Z,92.6248
2023-05-02T00:04:08.244Z,92.6844
2023-05-02T00:06:08.786Z,92.7926
2023-05-02T00:10:11.966Z,93.4231
2023-05-02T00:11:12.571Z,93.5209
2023-05-02T00:12:13.206Z,93.5161
2023-05-02T00:14:13.001Z,93.5060
2023-05-02T00:15:14.543Z,93.5262
2023-05-02T00:18:16.146Z,93.6759
2023-05-02T00:19:17.969Z,93.7962
2023-05-02T00:20:18.667Z,93.9770
2023-05-02T00:23:20.368Z,94.1880
2023-05-02T00:24:21.569Z,94.2704
2023-05-02T00:26:22.552Z,94.3886
2023-05-02T00:27:23.255Z,94.3792
2023-05-02T00:28:24.052Z,94.3659
2023-05-02T00:29:24.820Z,94.3615
2023-05-02T00:30:25.774Z,94.3598
2023-05-02T00:31:26.239Z,94.3513
2023-05-02T00:32:26.357Z,94.4379
2023-05-02T00:33:28.176Z,94.5454
2023-05-02T00:34:28.697Z,94.6255
2023-05-02T00:35:29.015Z,94.6436
2023-05-02T00:36:29.556Z,94.6622
2023-05-02T00:37:30.268Z,94.7015
2023-05-02T00:38:30.582Z,94.6866
2023-05-02T00:39:30.651Z,94.4923
2023-05-02T00:40:31.065Z,94.3078
2023-05-02T00:41:33.393Z,94.3588
2023-05-02T00:48:39.331Z,94.0577
2023-05-02T00:49:40.293Z,94.1057
2023-05-02T00:50:41.221Z,94.0222
2023-05-02T00:51:41.487Z,94.1121
2023-05-02T00:52:41.719Z,94.2078
2023-05-02T00:53:43.333Z,94.2477
2023-05-02T00:54:44.444Z,94.3006
2023-05-02T00:55:45.986Z,94.2463
2023-05-02T00:56:46.413Z,94.0300
2023-05-02T00:59:48.502Z,93.8663
2023-05-02T01:00:49.697Z,93.8929
2023-05-02T01:01:50.073Z,93.9435
2023-05-02T01:04:53.426Z,94.0377
2023-05-02T01:05:54.696Z,94.0446
2023-05-02T01:06:55.242Z,94.1067
2023-05-02T01:07:55.453Z,94.1583
2023-05-02T01:08:55.953Z,94.1749
2023-05-02T01:09:57.382Z,94.1964
2023-05-02T01:10:58.428Z,94.2748
2023-05-02T01:11:58.872Z,94.1614
2023-05-02T01:12:58.930Z,94.1789
2023-05-02T01:14:00.051Z,94.1213
2023-05-02T01:15:00.100Z,94.1861
2023-05-02T01:16:00.999Z,94.2368
2023-05-02T01:17:03.263Z,94.2922
2023-05-02T01:18:04.347Z,94.3112
2023-05-02T01:19:04.767Z,94.3799
2023-05-02T01:20:06.136Z,94.3067
2023-05-02T01:23:08.882Z,94.5435
2023-05-02T01:28:10.662Z,94.6191
2023-05-02T01:29:11.026Z,94.6233
2023-05-02T01:30:12.871Z,94.6614
2023-05-02T01:32:12.885Z,94.8289
2023-05-02T01:33:14.594Z,94.9504
2023-05-02T01:34:15.209Z,95.0517
2023-05-02T01:35:15.437Z,95.0934
2023-05-02T01:36:16.771Z,95.1540
2023-05-02T01:37:17.601Z,95.3312
2023-05-02T01:38:18.600Z,95.4460
2023-05-02T01:39:19.665Z,95.3776
2023-05-02T01:40:20.752Z,95.3880
2023-05-02T01:41:21.058Z,95.4621
2023-05-02T01:42:23.054Z,95.4599
2023-05-02T01:43:24.116Z,95.4928
2023-05-02T01:44:25.458Z,95.4825
2023-05-02T01:53:40.722Z,95.0414
2023-05-02T01:54:40.725Z,94.9232
2023-05-02T01:55:42.320Z,94.8851
2023-05-02T01:56:43.009Z,94.8547
2023-05-02T01:57:43.003Z,94.9196
2023-05-02T01:58:43.858Z,94.9611
2023-05-02T01:59:45.305Z,95.0158
2023-05-02T02:00:46.724Z,95.0550
2023-05-02T02:01:47.097Z,95.1754
2023-05-02T02:09:58.669Z,95.6031
2023-05-02T02:10:59.668Z,95.5329
2023-05-02T02:12:01.098Z,95.5061
2023-05-02T02:13:02.648Z,95.4152
2023-05-02T02:16:05.020Z,95.4104
2023-05-02T02:17:05.446Z,95.5182
2023-05-02T02:18:05.500Z,95.5843
2023-05-02T02:19:06.204Z,95.5835
2023-05-02T02:20:06.965Z,95.5834
2023-05-02T02:21:07.532Z,95.5997
2023-05-02T02:22:08.128Z,95.6328
2023-05-02T02:23:08.715Z,95.5576
2023-05-02T02:24:09.335Z,95.2632
2023-05-02T02:25:09.831Z,95.0464
2023-05-02T02:26:10.436Z,94.8580
2023-05-02T02:27:10.981Z,94.7969
2023-05-02T02:28:11.444Z,94.7689
2023-05-02T02:29:11.952Z,94.6939
2023-05-02T02:30:12.457Z,94.5012
2023-05-02T02:31:13.349Z,94.3638
2023-05-02T02:32:14.153Z,94.3732
2023-05-02T02:33:14.903Z,94.3745
2023-05-02T02:34:15.631Z,94.3306
2023-05-02T02:35:16.209Z,94.4137
2023-05-02T02:36:16.631Z,94.4064
2023-05-02T02:37:17.357Z,94.4123
2023-05-02T02:38:17.980Z,94.4344
2023-05-02T02:39:18.464Z,94.3985
2023-05-02T02:40:19.156Z,94.2260
2023-05-02T02:41:19.584Z,94.0557
2023-05-02T02:42:20.172Z,94.0826
2023-05-02T02:43:20.780Z,94.0554
2023-05-02T02:44:20.845Z,94.0199
2023-05-02T02:45:22.391Z,93.9615
2023-05-02T02:47:23.304Z,93.7861
2023-05-02T02:48:23.652Z,93.5330
2023-05-02T02:49:24.200Z,93.4721
2023-05-02T02:50:24.518Z,93.3438
2023-05-02T02:51:25.107Z,93.2623
2023-05-02T02:52:25.443Z,93.0504
2023-05-02T02:53:25.558Z,93.0123
2023-05-02T02:54:30.136Z,93.0196
2023-05-02T02:55:30.545Z,93.1242
2023-05-02T02:56:30.925Z,93.0776
2023-05-02T02:57:31.417Z,93.1529
2023-05-02T02:58:31.922Z,93.0744
2023-05-02T02:59:32.215Z,93.2314
2023-05-02T03:00:32.633Z,93.3335
2023-05-02T03:01:33.231Z,92.9782
2023-05-02T03:02:33.768Z,92.6191
2023-05-02T03:03:35.018Z,92.6577
2023-05-02T03:04:35.653Z,92.8034
2023-05-02T03:05:36.197Z,92.6082
2023-05-02T03:06:37.030Z,92.5543
2023-05-02T03:07:37.739Z,92.6125
2023-05-02T03:08:38.277Z,92.5990
2023-05-02T03:09:38.801Z,92.4174
2023-05-02T03:10:39.112Z,92.2049
2023-05-02T03:11:39.611Z,92.0660
2023-05-02T03:12:40.448Z,92.1278
2023-05-02T03:13:41.335Z,92.0942
2023-05-02T03:14:42.106Z,91.9509
2023-05-02T03:15:42.537Z,91.9315
2023-05-02T03:16:43.512Z,91.8577
2023-05-02T03:17:44.331Z,91.5554
2023-05-02T03:18:45.964Z,91.2103
2023-05-02T03:19:46.263Z,91.1669
2023-05-02T03:20:46.850Z,91.2852
2023-05-02T03:21:47.592Z,91.4877
2023-05-02T03:22:48.559Z,91.6188
2023-05-02T03:23:49.089Z,91.7793
2023-05-02T03:24:49.609Z,91.5382
2023-05-02T03:25:51.466Z,91.6790
2023-05-02T03:27:51.123Z,91.9248
2023-05-02T03:28:51.695Z,92.1158
2023-05-02T03:29:52.194Z,92.6914
2023-05-02T03:30:52.463Z,92.8638
2023-05-02T03:31:53.252Z,92.8095
2023-05-02T03:32:54.439Z,92.5935
2023-05-02T03:33:55.195Z,92.2793
2023-05-02T03:34:55.690Z,92.4059
2023-05-02T03:35:56.140Z,92.0802
2023-05-02T03:36:56.640Z,91.5751
2023-05-02T03:37:57.158Z,91.4985
2023-05-02T03:38:57.523Z,91.4454
2023-05-02T03:39:58.216Z,91.2180
2023-05-02T03:40:58.253Z,91.2683
2023-05-02T03:41:58.707Z,91.1601
2023-05-02T03:42:59.150Z,91.0602
2023-05-02T03:43:59.566Z,91.1115
2023-05-02T03:45:00.210Z,90.9550
2023-05-02T03:46:01.380Z,91.1138
2023-05-02T03:47:02.243Z,91.3543
2023-05-02T03:48:03.352Z,91.4236
2023-05-02T03:49:04.032Z,91.6300
2023-05-02T03:50:04.377Z,91.4241
2023-05-02T03:51:04.930Z,91.3943
2023-05-02T03:52:05.598Z,91.5868
2023-05-02T03:53:06.814Z,91.5807
2023-05-02T03:54:07.365Z,91.7510
2023-05-02T03:55:08.033Z,91.8702
2023-05-02T03:56:08.390Z,91.6890
2023-05-02T03:57:09.167Z,91.5756
2023-05-02T03:58:09.568Z,91.2917
2023-05-02T03:59:10.396Z,91.2739
2023-05-02T04:00:11.302Z,91.3409
2023-05-02T04:01:11.843Z,91.4927
2023-05-02T04:02:12.370Z,91.6904
2023-05-02T04:03:12.573Z,91.5330
2023-05-02T04:04:13.349Z,91.7372
2023-05-02T04:05:13.825Z,92.1028
2023-05-02T04:06:14.955Z,92.0607
2023-05-02T04:07:15.484Z,91.8804
2023-05-02T04:08:16.014Z,91.7806
2023-05-02T04:09:16.684Z,91.7254
2023-05-02T04:10:17.772Z,91.6812
2023-05-02T04:11:18.410Z,91.7414
2023-05-02T04:12:18.945Z,91.8499
2023-05-02T04:13:19.293Z,92.0161
2023-05-02T04:14:20.025Z,91.9895
2023-05-02T04:15:20.440Z,91.9644
2023-05-02T04:16:21.228Z,91.9465
2023-05-02T04:17:21.301Z,91.9513
2023-05-02T04:18:22.139Z,91.8440
2023-05-02T04:19:22.699Z,91.6055
2023-05-02T04:20:23.225Z,91.5838
2023-05-02T04:21:23.785Z,91.6847
2023-05-02T04:22:24.430Z,91.6927
2023-05-02T04:23:24.690Z,91.8223
2023-05-02T04:24:25.289Z,92.3089
2023-05-02T04:25:25.726Z,92.3914
2023-05-02T04:26:26.216Z,92.2851
2023-05-02T04:27:26.367Z,91.7176
2023-05-02T04:28:26.884Z,91.3296
2023-05-02T04:29:27.525Z,91.4070
2023-05-02T04:30:28.464Z,91.5350
2023-05-02T04:31:29.119Z,91.5887
2023-05-02T04:32:29.922Z,91.7366
2023-05-02T04:33:30.813Z,92.0196
2023-05-02T04:34:31.210Z,92.3878
2023-05-02T04:35:31.888Z,92.6132
2023-05-02T04:36:32.391Z,92.9472
2023-05-02T04:37:32.600Z,93.2072
2023-05-02T04:38:33.145Z,93.4856
2023-05-02T04:39:33.626Z,93.5599
2023-05-02T04:40:34.134Z,93.5648
2023-05-02T04:41:34.844Z,93.6192
2023-05-02T04:42:35.237Z,93.7418
2023-05-02T04:43:35.671Z,93.7406
2023-05-02T04:44:36.511Z,93.7046
2023-05-02T04:45:37.186Z,93.8874
2023-05-02T04:46:38.313Z,93.9929
2023-05-02T04:47:38.949Z,94.0442
2023-05-02T04:48:39.908Z,94.1038
2023-05-02T04:49:40.877Z,94.0402
2023-05-02T04:50:42.156Z,93.9239
2023-05-02T04:51:42.968Z,94.0451
2023-05-02T04:52:43.576Z,94.0986
2023-05-02T04:53:43.920Z,94.1846
2023-05-02T04:54:44.591Z,94.3124
2023-05-02T04:55:44.948Z,94.2026
2023-05-02T04:56:45.565Z,94.1735
2023-05-02T04:57:46.820Z,94.3633
2023-05-02T04:58:47.317Z,94.3411
2023-05-02T04:59:47.971Z,94.2753
2023-05-02T05:00:48.571Z,94.3804
2023-05-02T05:01:49.336Z,94.4225
2023-05-02T05:02:50.978Z,94.5191
2023-05-02T05:03:51.075Z,94.6871
2023-05-02T05:04:51.679Z,94.6483
2023-05-02T05:05:51.952Z,94.5607
2023-05-02T05:06:53.125Z,94.6567
2023-05-02T05:07:53.816Z,94.7438
2023-05-02T05:08:54.482Z,94.7964
2023-05-02T05:09:55.980Z,94.6576
2023-05-02T05:10:57.005Z,94.5959
2023-05-02T05:11:57.691Z,94.7220
2023-05-02T05:12:58.149Z,94.8098
2023-05-02T05:13:58.874Z,94.8536
2023-05-02T05:14:59.354Z,94.8124
2023-05-02T05:16:00.255Z,94.6056
2023-05-02T05:17:00.423Z,94.3249
2023-05-02T05:18:01.003Z,94.0345
2023-05-02T05:19:01.340Z,93.6710
2023-05-02T05:20:02.276Z,93.4387
2023-05-02T05:21:02.857Z,93.2257
2023-05-02T05:23:04.324Z,92.8758
2023-05-02T05:24:04.822Z,92.7467
2023-05-02T05:25:05.699Z,92.3377
2023-05-02T05:26:06.544Z,92.3822
2023-05-02T05:27:07.396Z,92.5537
2023-05-02T05:28:08.083Z,92.6423
2023-05-02T05:29:08.776Z,92.5383
2023-05-02T05:30:09.729Z,92.4974
2023-05-02T05:31:10.599Z,92.5617
2023-05-02T05:32:11.668Z,92.4065
2023-05-02T05:33:12.393Z,92.1618
2023-05-02T05:34:12.814Z,92.1251
2023-05-02T05:35:13.551Z,91.9338
2023-05-02T05:36:14.774Z,91.8582
2023-05-02T05:37:15.363Z,91.6980
2023-05-02T05:38:15.907Z,91.4562
2023-05-02T05:39:16.665Z,91.2162
2023-05-02T05:40:17.581Z,90.9207
2023-05-02T05:41:18.292Z,91.0719
2023-05-02T05:42:19.053Z,91.1276
2023-05-02T05:43:20.089Z,91.0146
2023-05-02T05:44:20.576Z,90.7816
2023-05-02T05:45:21.507Z,90.5646
2023-05-02T05:46:23.146Z,90.5749
2023-05-02T05:47:24.179Z,90.5982
2023-05-02T05:48:25.318Z,90.5764
2023-05-02T05:49:26.124Z,90.5481
2023-05-02T05:50:26.754Z,90.6463
2023-05-02T05:51:27.699Z,90.7359
2023-05-02T05:52:28.406Z,90.8308
2023-05-02T05:53:29.437Z,90.9197
2023-05-02T05:54:30.369Z,90.8433
2023-05-02T05:55:31.087Z,90.8564
2023-05-02T05:56:31.939Z,90.8976
2023-05-02T05:57:32.654Z,90.7141
2023-05-02T05:58:33.381Z,90.5953
2023-05-02T05:59:34.355Z,90.6314
2023-05-02T06:00:35.794Z,90.8889
2023-05-02T06:01:36.605Z,90.4766
2023-05-02T06:02:36.757Z,90.2932
2023-05-02T06:03:37.296Z,90.3059
2023-05-02T06:04:37.576Z,90.2948
2023-05-02T06:05:38.139Z,89.8553
2023-05-02T06:06:39.065Z,89.3927
2023-05-02T06:07:39.947Z,89.4807
2023-05-02T06:08:40.459Z,89.6559
2023-05-02T06:09:41.297Z,89.7024
2023-05-02T06:10:42.549Z,89.6699
2023-05-02T06:11:43.163Z,89.7092
2023-05-02T06:12:45.209Z,89.2055
2023-05-02T06:13:45.256Z,88.9643
2023-05-02T06:14:45.698Z,88.4364
2023-05-02T06:15:46.295Z,88.6754
2023-05-02T06:16:47.197Z,88.8983
2023-05-02T06:17:48.071Z,88.7693
2023-05-02T06:18:48.926Z,89.5798
2023-05-02T06:19:49.497Z,89.3980
2023-05-02T06:20:49.867Z,88.7661
2023-05-02T06:21:50.683Z,88.6616
2023-05-02T06:22:51.127Z,88.9034
2023-05-02T06:23:51.946Z,89.1420
2023-05-02T06:24:52.526Z,89.0716
2023-05-02T06:25:53.033Z,89.2009
2023-05-02T06:26:53.743Z,89.3589
2023-05-02T06:27:54.297Z,88.8902
2023-05-02T06:28:54.896Z,88.7026
2023-05-02T06:29:55.670Z,89.3735
2023-05-02T06:30:56.111Z,90.1734
2023-05-02T06:31:57.171Z,89.7787
2023-05-02T06:32:57.998Z,89.7143
2023-05-02T06:33:58.762Z,90.5146
2023-05-02T06:34:59.503Z,90.2624
2023-05-02T06:36:01.834Z,90.0749
2023-05-02T06:37:00.392Z,89.9565
2023-05-02T06:38:01.067Z,89.5214
2023-05-02T06:39:01.676Z,89.3744
2023-05-02T06:40:03.288Z,90.1622
2023-05-02T06:41:04.238Z,90.0221
2023-05-02T06:42:04.521Z,89.8005
2023-05-02T06:43:05.403Z,89.9242
2023-05-02T06:44:06.067Z,90.3331
2023-05-02T06:45:06.750Z,90.0939
2023-05-02T06:46:07.472Z,89.6237
2023-05-02T06:47:08.174Z,89.7938
2023-05-02T06:48:08.476Z,89.4236
2023-05-02T06:49:09.323Z,88.7740
2023-05-02T06:50:10.527Z,88.1260
2023-05-02T06:51:11.270Z,87.6938
2023-05-02T06:52:12.053Z,87.6093
2023-05-02T06:53:12.657Z,86.8417
2023-05-02T06:54:13.645Z,87.0963
2023-05-02T06:55:14.383Z,87.3037
2023-05-02T06:56:15.016Z,87.0943
2023-05-02T06:57:15.782Z,86.7240
2023-05-02T06:58:16.264Z,86.4076
2023-05-02T06:59:16.965Z,86.5853
2023-05-02T07:00:17.871Z,87.1592
2023-05-02T07:01:18.953Z,87.3196
2023-05-02T07:02:19.571Z,87.6900
2023-05-02T07:03:20.679Z,87.3688
2023-05-02T07:04:21.361Z,87.2008
2023-05-02T07:05:22.068Z,86.9527
2023-05-02T07:06:22.698Z,86.9188
2023-05-02T07:07:23.315Z,86.6692
2023-05-02T07:08:23.891Z,87.3156
2023-05-02T07:09:24.390Z,87.5158
2023-05-02T07:10:25.710Z,87.1826
2023-05-02T07:11:26.374Z,86.0849
2023-05-02T07:12:27.556Z,86.1107
2023-05-02T07:13:28.502Z,86.4713
2023-05-02T07:14:29.056Z,86.7294
2023-05-02T07:15:29.466Z,86.3442
2023-05-02T07:16:30.428Z,86.1878
2023-05-02T07:17:31.278Z,86.0663
2023-05-02T07:18:32.279Z,86.0481
2023-05-02T07:19:32.899Z,86.6815
2023-05-02T07:20:33.948Z,87.2023
2023-05-02T07:21:34.629Z,87.0252
2023-05-02T07:22:35.273Z,87.2078
2023-05-02T07:23:35.706Z,87.3784
2023-05-02T07:24:36.393Z,87.2533
2023-05-02T07:25:37.238Z,87.1496
2023-05-02T07:26:37.998Z,87.2102
2023-05-02T07:27:38.576Z,86.7769
2023-05-02T07:28:39.195Z,86.3987
2023-05-02T07:29:39.896Z,86.8409
2023-05-02T07:30:40.543Z,86.7066
2023-05-02T07:31:41.119Z,86.4409
2023-05-02T07:32:42.016Z,85.9829
2023-05-02T07:33:42.967Z,85.3574
2023-05-02T07:34:43.610Z,86.0872
2023-05-02T07:35:44.261Z,86.1742
2023-05-02T07:36:44.616Z,86.1731
2023-05-02T07:37:45.219Z,86.1140
2023-05-02T07:38:45.806Z,86.2171
2023-05-02T07:39:46.246Z,86.3920
2023-05-02T07:40:46.890Z,86.1376
2023-05-02T07:41:47.482Z,85.4758
2023-05-02T07:42:47.985Z,85.2904
2023-05-02T07:43:48.710Z,85.6378
2023-05-02T07:44:49.178Z,85.6350
2023-05-02T07:45:50.150Z,85.4650
2023-05-02T07:46:50.276Z,85.7488
2023-05-02T07:47:50.659Z,85.7310
2023-05-02T07:48:51.588Z,85.5663
2023-05-02T07:49:52.330Z,85.7806
2023-05-02T07:50:52.535Z,85.6023
2023-05-02T07:51:53.265Z,85.7091
2023-05-02T07:52:53.812Z,86.2920
2023-05-02T07:53:54.225Z,85.7918
2023-05-02T07:54:54.900Z,86.1583
2023-05-02T07:55:55.296Z,85.7734
2023-05-02T07:56:55.821Z,85.6780
2023-05-02T07:57:56.472Z,85.0272
2023-05-02T07:58:56.895Z,85.4089
2023-05-02T07:59:57.693Z,85.0812
2023-05-02T08:00:58.092Z,84.8982
2023-05-02T08:01:58.684Z,84.9726
2023-05-02T08:02:59.985Z,84.7816
2023-05-02T08:04:00.656Z,85.0947
2023-05-02T08:05:01.479Z,84.4321
2023-05-02T08:06:01.616Z,85.0070
2023-05-02T08:07:02.450Z,86.3839
2023-05-02T08:08:03.256Z,85.8787
2023-05-02T08:09:03.702Z,84.9603
2023-05-02T08:10:04.557Z,82.5804
2023-05-02T08:11:04.433Z,82.4819
2023-05-02T08:12:05.369Z,83.2594
2023-05-02T08:13:06.111Z,83.4353
2023-05-02T08:14:06.858Z,83.8289
2023-05-02T08:15:07.342Z,83.9890
2023-05-02T08:16:08.426Z,83.5535
2023-05-02T08:17:08.751Z,83.4637
2023-05-02T08:18:09.497Z,83.3423
2023-05-02T08:19:10.342Z,83.3170
2023-05-02T08:20:10.403Z,83.3252
2023-05-02T08:21:11.092Z,83.1125
2023-05-02T08:22:12.040Z,83.3824
2023-05-02T08:23:12.642Z,83.1456
2023-05-02T08:24:14.329Z,81.9712
2023-05-02T08:25:15.072Z,81.9787
2023-05-02T08:26:15.731Z,82.5493
2023-05-02T08:27:16.498Z,81.9806
2023-05-02T08:28:17.299Z,81.6590
2023-05-02T08:29:17.870Z,81.8081
2023-05-02T08:30:18.828Z,81.5740
2023-05-02T08:31:19.667Z,81.5229
2023-05-02T08:32:20.872Z,82.2249
2023-05-02T08:33:21.947Z,82.1033
2023-05-02T08:34:22.707Z,81.4469
2023-05-02T08:35:23.324Z,81.4634
2023-05-02T08:36:24.253Z,81.4519
2023-05-02T08:37:24.656Z,81.1666
2023-05-02T08:38:25.266Z,80.6910
2023-05-02T08:39:26.007Z,81.3708
2023-05-02T08:40:38.199Z,82.7473
2023-05-02T08:41:27.210Z,80.7952
2023-05-02T08:42:27.618Z,79.5293
2023-05-02T08:43:28.279Z,79.6502
2023-05-02T08:44:29.000Z,79.0964
2023-05-02T08:45:30.035Z,78.7617
2023-05-02T08:46:31.133Z,79.3008
2023-05-02T08:47:32.110Z,78.4896
2023-05-02T08:48:32.182Z,78.2683
2023-05-02T08:49:32.692Z,78.2626
2023-05-02T08:50:33.390Z,77.3617
2023-05-02T08:51:33.481Z,77.5600
2023-05-02T08:52:34.016Z,77.6997
2023-05-02T08:53:34.749Z,77.7125
2023-05-02T08:54:35.250Z,77.9365
2023-05-02T08:55:35.915Z,77.6724
2023-05-02T08:56:36.837Z,77.9337
2023-05-02T08:57:37.366Z,77.6573
2023-05-02T08:58:38.020Z,77.4363
2023-05-02T08:59:39.189Z,76.9663
2023-05-02T09:00:39.736Z,76.6836
2023-05-02T09:01:40.886Z,75.8971
2023-05-02T09:02:41.629Z,75.3650
2023-05-02T09:03:42.385Z,74.5834
2023-05-02T09:04:43.418Z,74.0114
2023-05-02T09:05:43.375Z,74.2330
2023-05-02T09:06:44.172Z,75.5055
2023-05-02T09:07:44.817Z,73.6602
2023-05-02T09:08:45.266Z,72.1208
2023-05-02T09:09:45.840Z,72.7848
2023-05-02T09:10:46.480Z,72.1234
2023-05-02T09:11:46.979Z,70.9679
2023-05-02T09:12:47.826Z,70.7800
2023-05-02T09:13:48.353Z,70.4829
2023-05-02T09:14:49.065Z,70.1450
2023-05-02T09:15:49.843Z,70.0283
2023-05-02T09:16:50.631Z,70.0894
2023-05-02T09:17:51.684Z,70.3665
2023-05-02T09:18:52.381Z,70.7162
2023-05-02T09:19:52.977Z,74.0471
2023-05-02T09:20:53.634Z,74.0781
2023-05-02T09:21:54.588Z,73.9015
2023-05-02T09:22:55.200Z,73.8078
2023-05-02T09:23:55.750Z,72.3376
2023-05-02T09:24:56.271Z,71.8969
2023-05-02T09:25:57.628Z,71.9631
2023-05-02T09:26:58.941Z,71.3875
2023-05-02T09:27:59.714Z,70.5626
2023-05-02T09:29:00.481Z,69.7700
2023-05-02T09:30:01.391Z,70.5544
2023-05-02T09:31:02.439Z,69.6429
2023-05-02T09:32:03.750Z,71.1681
2023-05-02T09:33:04.867Z,69.2886
2023-05-02T09:34:05.309Z,67.9378
2023-05-02T09:35:06.225Z,69.5642
2023-05-02T09:36:06.741Z,68.7255
2023-05-02T09:37:07.391Z,69.0503
2023-05-02T09:38:08.093Z,69.2651
2023-05-02T09:39:09.015Z,69.0899
2023-05-02T09:40:09.610Z,67.4772
2023-05-02T09:41:10.418Z,65.6226
2023-05-02T09:42:10.995Z,66.5539
2023-05-02T09:43:11.687Z,67.6679
2023-05-02T09:44:12.276Z,69.7151
2023-05-02T09:45:13.481Z,70.3587
2023-05-02T09:46:14.335Z,71.5502
2023-05-02T09:47:15.536Z,71.9228
2023-05-02T09:48:16.429Z,70.9671
2023-05-02T09:49:17.314Z,69.8758
2023-05-02T09:50:18.118Z,71.9611
2023-05-02T09:51:18.847Z,72.9641
2023-05-02T09:52:19.646Z,71.2969
2023-05-02T09:53:20.155Z,71.0388
2023-05-02T09:54:20.798Z,71.7408
2023-05-02T09:55:21.489Z,71.2096
2023-05-02T09:56:23.298Z,71.7748
2023-05-02T09:57:22.866Z,70.8470
2023-05-02T09:58:23.352Z,69.9037
2023-05-02T09:59:24.042Z,69.4467
2023-05-02T10:00:24.768Z,70.9362
2023-05-02T10:01:25.459Z,70.3370
2023-05-02T10:02:25.965Z,68.6905
2023-05-02T10:03:26.973Z,70.5296
2023-05-02T10:04:28.260Z,70.5569
2023-05-02T10:05:30.176Z,69.6722
2023-05-02T10:06:29.653Z,66.8639
2023-05-02T10:07:30.756Z,67.2509
2023-05-02T10:08:31.706Z,68.3429
2023-05-02T10:09:31.768Z,69.6185
2023-05-02T10:10:32.355Z,69.4862
2023-05-02T10:11:33.368Z,69.5822
2023-05-02T10:12:33.992Z,69.5394
2023-05-02T10:13:34.760Z,69.1938
2023-05-02T10:14:37.191Z,66.2506
2023-05-02T10:15:37.807Z,65.2961
2023-05-02T10:16:39.002Z,64.2758
2023-05-02T10:17:39.847Z,64.4047
2023-05-02T10:18:40.983Z,65.6407
2023-05-02T10:19:41.755Z,67.2125
2023-05-02T10:20:42.421Z,65.8893
2023-05-02T10:21:42.948Z,65.6055
2023-05-02T10:22:43.742Z,65.6530
2023-05-02T10:23:44.374Z,64.9209
2023-05-02T10:24:45.218Z,64.6307
2023-05-02T10:25:45.895Z,65.2166
2023-05-02T10:26:46.455Z,64.9870
2023-05-02T10:27:47.171Z,67.8348
2023-05-02T10:28:48.090Z,68.6391
2023-05-02T10:29:48.794Z,68.1362
2023-05-02T10:30:49.546Z,65.9806
2023-05-02T10:31:50.134Z,67.5659
2023-05-02T10:32:51.159Z,67.5230
2023-05-02T10:33:52.168Z,66.5141
2023-05-02T10:34:52.678Z,66.0576
2023-05-02T10:35:53.326Z,66.7984
2023-05-02T10:36:54.011Z,67.2874
2023-05-02T10:39:04.223Z,68.0492
2023-05-02T10:40:04.851Z,66.8916
2023-05-02T10:41:05.393Z,66.1086
2023-05-02T10:42:06.068Z,66.3346
2023-05-02T10:43:06.707Z,67.2896
2023-05-02T10:44:07.271Z,68.6038
2023-05-02T10:45:07.994Z,67.9127
2023-05-02T10:46:08.557Z,69.4819
2023-05-02T10:47:09.011Z,70.2677
2023-05-02T10:48:09.970Z,70.9604
2023-05-02T10:49:10.492Z,70.1413
2023-05-02T10:50:11.340Z,68.7761
2023-05-02T10:52:11.720Z,68.7779
2023-05-02T10:53:12.339Z,69.2400
2023-05-02T10:54:12.735Z,70.3717
2023-05-02T10:55:13.482Z,71.7935
2023-05-02T10:56:14.205Z,71.1870
2023-05-02T10:57:14.716Z,69.9091
2023-05-02T10:58:15.662Z,69.1956
2023-05-02T10:59:16.472Z,69.6823
2023-05-02T11:00:16.934Z,69.3136
2023-05-02T11:01:17.922Z,69.0365
2023-05-02T11:02:18.752Z,70.3653
2023-05-02T11:03:19.088Z,69.7117
2023-05-02T11:04:19.846Z,69.7668
2023-05-02T11:05:21.120Z,68.5017
2023-05-02T11:06:21.934Z,68.5874
2023-05-02T11:07:23.251Z,68.4702
2023-05-02T11:08:24.325Z,69.4716
2023-05-02T11:09:24.859Z,68.5378
2023-05-02T11:10:25.637Z,69.9695
2023-05-02T11:11:26.048Z,70.2135
2023-05-02T11:12:26.749Z,69.4891
2023-05-02T11:13:27.149Z,69.1441
2023-05-02T11:14:27.760Z,69.6120
2023-05-02T11:15:28.475Z,68.6949
2023-05-02T11:16:29.153Z,69.3003
2023-05-02T11:17:30.108Z,69.4589
2023-05-02T11:18:31.073Z,66.9481
2023-05-02T11:19:31.752Z,67.5204
2023-05-02T11:20:32.519Z,68.2520
2023-05-02T11:21:33.030Z,67.3322
2023-05-02T11:22:33.708Z,66.2121
2023-05-02T11:23:34.393Z,68.0155
2023-05-02T11:24:34.957Z,67.0463
2023-05-02T11:25:35.538Z,67.1802
2023-05-02T11:26:36.148Z,66.9600
2023-05-02T11:27:36.588Z,67.7577
2023-05-02T11:28:37.398Z,68.2913
2023-05-02T11:29:37.886Z,67.8271
2023-05-02T11:30:38.450Z,68.1755
2023-05-02T11:31:39.638Z,68.0510
2023-05-02T11:32:39.660Z,66.2814
2023-05-02T11:33:40.731Z,65.2243
2023-05-02T11:34:41.420Z,67.2039
2023-05-02T11:35:41.637Z,68.0541
2023-05-02T11:36:42.320Z,66.0553
2023-05-02T11:37:42.833Z,65.2351
2023-05-02T11:38:43.406Z,64.5556
2023-05-02T11:39:44.260Z,60.9752
2023-05-02T11:40:44.769Z,60.7601
2023-05-02T11:41:45.464Z,62.7747
2023-05-02T11:42:46.088Z,64.2031
2023-05-02T11:43:46.163Z,63.5185
2023-05-02T11:44:46.813Z,63.8571
2023-05-02T11:45:47.322Z,61.9750
2023-05-02T11:46:48.053Z,64.1638
2023-05-02T11:47:48.845Z,62.6460
2023-05-02T11:48:49.622Z,58.1413
2023-05-02T11:49:50.589Z,53.7620
2023-05-02T11:50:52.612Z,52.2121
2023-05-02T11:51:53.015Z,52.5687
2023-05-02T11:52:53.658Z,56.2486
2023-05-02T11:53:54.409Z,54.0744
2023-05-02T11:54:54.876Z,52.0197
2023-05-02T11:55:56.152Z,50.0622
2023-05-02T11:56:56.600Z,53.4122
2023-05-02T11:57:57.195Z,53.6935
2023-05-02T11:58:57.300Z,54.5530
2023-05-02T11:59:58.129Z,54.7102
2023-05-02T12:00:59.116Z,54.6650
2023-05-02T12:01:59.737Z,54.1558
2023-05-02T12:03:00.751Z,57.8695
2023-05-02T12:04:01.620Z,56.4878
2023-05-02T12:05:03.217Z,58.7513
2023-05-02T12:06:03.306Z,56.3753
2023-05-02T12:07:04.004Z,53.9761
2023-05-02T12:08:05.064Z,55.2984
2023-05-02T12:09:05.496Z,56.0135
2023-05-02T12:10:06.173Z,53.0573
2023-05-02T12:11:06.605Z,47.1541
2023-05-02T12:12:07.259Z,46.7176
2023-05-02T12:13:08.906Z,47.2066
2023-05-02T12:14:08.104Z,44.6842
2023-05-02T12:15:09.395Z,47.2978
2023-05-02T12:16:10.453Z,47.7105
2023-05-02T12:17:11.253Z,44.3275
2023-05-02T12:18:12.520Z,44.2309
2023-05-02T12:19:12.853Z,46.3459
2023-05-02T12:20:13.437Z,47.6808
2023-05-02T12:21:14.137Z,50.9729
2023-05-02T12:22:14.759Z,53.5546
2023-05-02T12:23:15.410Z,55.0344
2023-05-02T12:24:16.229Z,55.9080
2023-05-02T12:25:16.775Z,59.4056
2023-05-02T12:26:16.814Z,60.6603
2023-05-02T12:27:16.995Z,59.8099
2023-05-02T12:28:17.617Z,60.2654
2023-05-02T12:29:18.430Z,64.1300
2023-05-02T12:30:19.143Z,65.1074
2023-05-02T12:31:20.008Z,66.5420
2023-05-02T12:32:20.919Z,68.0179
2023-05-02T12:33:21.740Z,69.0380
2023-05-02T12:34:22.563Z,69.9309
2023-05-02T12:35:23.318Z,70.8115
2023-05-02T12:36:23.265Z,71.1393
2023-05-02T12:37:23.969Z,71.2694
2023-05-02T12:38:25.134Z,72.0575
2023-05-02T12:39:25.930Z,72.3843
2023-05-02T12:40:26.429Z,73.0756
2023-05-02T12:41:27.132Z,73.8845
2023-05-02T12:42:27.931Z,73.8081
2023-05-02T12:43:28.418Z,74.2483
2023-05-02T12:44:28.540Z,75.1118
2023-05-02T12:45:29.160Z,75.3296
2023-05-02T12:46:30.057Z,75.3387
2023-05-02T12:47:31.380Z,75.1327
2023-05-02T12:48:32.144Z,74.9920
2023-05-02T12:49:32.922Z,75.8940
2023-05-02T12:50:34.039Z,76.7348
2023-05-02T12:51:34.861Z,78.2457
2023-05-02T12:52:35.718Z,79.8026
2023-05-02T12:53:36.286Z,80.0158
2023-05-02T12:54:36.943Z,79.6403
2023-05-02T12:55:37.676Z,79.4700
2023-05-02T12:56:38.301Z,81.7972
2023-05-02T12:57:39.080Z,84.7627
2023-05-02T12:58:39.894Z,86.5364
2023-05-02T12:59:40.347Z,88.0453
2023-05-02T13:00:41.194Z,88.7800
2023-05-02T13:01:42.586Z,89.1809
2023-05-02T13:02:43.472Z,89.8412
2023-05-02T13:03:43.930Z,90.3465
2023-05-02T13:04:45.185Z,90.3960